Time;durP1;ratioP1;P1;durP2;ratioP2;P2;SDS_P1;SDS_P2;PMS_P1;PMS_P2;Temp;Humidity;BMP_temperature;BMP_pressure;BME280_temperature;BME280_humidity;BME280_pressure;Samples;Min_cycle;Max_cycle;Signal;HPM_P1;HPM_P2
2024/01/10 00:02:04;;;;;;;213.63;86.78;;;-3.50;99.90;;;;;;5097843;28;20054;-53
2024/01/10 00:04:30;;;;;;;229.23;95.15;;;-3.50;99.90;;;;;;5097961;28;20097;-53
2024/01/10 00:06:56;;;;;;;248.68;102.05;;;-3.60;99.90;;;;;;5097378;28;20028;-53
2024/01/10 00:09:22;;;;;;;244.85;98.03;;;-3.50;99.90;;;;;;5097756;28;20028;-54
2024/01/10 00:11:48;;;;;;;208.60;85.15;;;-3.60;99.90;;;;;;5097551;28;20031;-53
2024/01/10 00:14:14;;;;;;;191.93;80.63;;;-3.70;99.90;;;;;;5097458;28;20020;-53
2024/01/10 00:16:40;;;;;;;210.05;84.60;;;-3.90;99.90;;;;;;5097152;28;20032;-54
2024/01/10 00:19:06;;;;;;;217.25;93.05;;;-3.90;99.90;;;;;;5097632;28;20016;-53
2024/01/10 00:21:31;;;;;;;258.08;102.43;;;-4.00;99.90;;;;;;5097421;28;20020;-53
2024/01/10 00:23:57;;;;;;;252.15;102.50;;;-4.20;99.90;;;;;;5097410;28;20028;-53
2024/01/10 00:26:23;;;;;;;259.98;105.43;;;-4.20;99.90;;;;;;5097544;28;20168;-53
2024/01/10 00:28:49;;;;;;;243.65;100.28;;;-4.10;99.90;;;;;;5097169;28;20033;-53
2024/01/10 00:31:15;;;;;;;214.75;91.32;;;-4.00;99.90;;;;;;5097292;28;20388;-53
2024/01/10 00:33:41;;;;;;;289.73;112.78;;;-3.90;99.90;;;;;;5097274;28;20090;-53
2024/01/10 00:36:07;;;;;;;521.15;190.98;;;-4.00;99.90;;;;;;5097220;28;20050;-53
2024/01/10 00:38:33;;;;;;;509.42;178.32;;;-4.10;99.90;;;;;;5097427;28;20077;-53
2024/01/10 00:40:59;;;;;;;323.25;117.20;;;-4.20;99.90;;;;;;5097198;28;20104;-53
2024/01/10 00:43:25;;;;;;;251.10;97.85;;;-4.30;99.90;;;;;;5096736;28;20047;-53
2024/01/10 00:45:51;;;;;;;309.88;113.32;;;-4.30;99.90;;;;;;5097075;28;20027;-53
2024/01/10 00:48:17;;;;;;;360.95;127.82;;;-4.30;99.90;;;;;;5096884;28;20024;-53
2024/01/10 00:50:46;;;;;;;439.20;149.45;;;-4.30;99.90;;;;;;5096771;28;20039;-53
2024/01/10 00:53:13;;;;;;;371.08;128.70;;;-4.40;99.90;;;;;;5096751;28;20509;-53
2024/01/10 00:55:39;;;;;;;446.25;148.90;;;-4.40;99.90;;;;;;5096948;28;20466;-53
2024/01/10 00:58:05;;;;;;;375.40;134.43;;;-4.40;99.90;;;;;;5096139;28;20112;-53
2024/01/10 01:00:32;;;;;;;369.50;134.52;;;-4.30;99.90;;;;;;5096183;28;20050;-53
2024/01/10 01:02:58;;;;;;;646.47;235.85;;;-4.30;99.90;;;;;;5096493;28;20497;-53
2024/01/10 01:05:23;;;;;;;907.70;344.70;;;-4.20;99.90;;;;;;5096529;28;20028;-53
2024/01/10 01:07:49;;;;;;;900.65;336.92;;;-4.30;99.90;;;;;;5096490;28;20026;-53
2024/01/10 01:10:15;;;;;;;879.22;325.33;;;-4.40;99.90;;;;;;5096569;28;20112;-53
2024/01/10 01:12:41;;;;;;;819.35;293.67;;;-4.40;99.90;;;;;;5096156;28;20386;-53
2024/01/10 01:15:07;;;;;;;590.22;208.15;;;-4.40;99.90;;;;;;5096770;28;20103;-53
2024/01/10 01:17:34;;;;;;;493.70;164.88;;;-4.30;99.90;;;;;;5096096;28;20036;-53
2024/01/10 01:20:00;;;;;;;380.15;137.50;;;-4.30;99.90;;;;;;5096312;28;20024;-53
2024/01/10 01:22:26;;;;;;;236.43;92.82;;;-4.40;99.90;;;;;;5096274;28;20038;-53
2024/01/10 01:24:52;;;;;;;193.35;74.80;;;-4.50;99.90;;;;;;5096583;28;20389;-53
2024/01/10 01:27:18;;;;;;;232.65;91.47;;;-4.60;99.90;;;;;;5096088;28;20120;-53
2024/01/10 01:29:43;;;;;;;261.35;105.93;;;-4.70;99.90;;;;;;5096274;28;20028;-53
2024/01/10 01:32:09;;;;;;;186.57;77.43;;;-4.80;99.90;;;;;;5095948;28;20485;-54
2024/01/10 01:34:35;;;;;;;187.30;78.50;;;-4.90;99.90;;;;;;5095942;28;20103;-53
2024/01/10 01:37:01;;;;;;;201.25;83.60;;;-4.70;99.90;;;;;;5096095;28;20498;-53
2024/01/10 01:39:27;;;;;;;224.65;88.97;;;-4.70;99.90;;;;;;5096045;28;20024;-53
2024/01/10 01:41:53;;;;;;;221.70;88.97;;;-4.70;99.90;;;;;;5095841;28;20026;-53
2024/01/10 01:44:19;;;;;;;235.90;96.00;;;-4.60;99.90;;;;;;5096096;28;20099;-53
2024/01/10 01:46:46;;;;;;;243.73;95.85;;;-4.60;99.90;;;;;;5095863;28;20028;-53
2024/01/10 01:49:12;;;;;;;229.85;94.18;;;-4.60;99.90;;;;;;5095730;28;20036;-54
2024/01/10 01:51:39;;;;;;;226.82;90.13;;;-4.60;99.90;;;;;;5096208;28;20032;-53
2024/01/10 01:54:11;;;;;;;221.10;90.05;;;-4.60;99.90;;;;;;5095707;28;20039;-53
2024/01/10 01:56:38;;;;;;;219.77;84.75;;;-4.70;99.90;;;;;;5095590;28;20020;-53
2024/01/10 01:59:08;;;;;;;197.48;80.55;;;-4.80;99.90;;;;;;5095807;28;20032;-53
2024/01/10 02:01:34;;;;;;;196.82;81.10;;;-4.90;99.90;;;;;;5095741;28;20115;-53
2024/01/10 02:04:03;;;;;;;193.05;79.05;;;-4.90;99.90;;;;;;5095391;28;20067;-53
2024/01/10 02:06:30;;;;;;;197.80;79.38;;;-5.00;99.90;;;;;;5095754;28;20031;-53
2024/01/10 02:08:59;;;;;;;190.30;75.70;;;-5.00;99.90;;;;;;5095549;28;20454;-53
2024/01/10 02:11:26;;;;;;;216.45;86.45;;;-5.10;99.90;;;;;;5093662;28;20032;-53
2024/01/10 02:13:54;;;;;;;253.55;98.15;;;-5.10;99.90;;;;;;5095521;28;20056;-53
2024/01/10 02:16:21;;;;;;;280.02;103.15;;;-5.00;99.90;;;;;;5095639;28;20462;-53
2024/01/10 02:18:47;;;;;;;240.45;89.68;;;-5.00;99.90;;;;;;5095245;28;20398;-53
2024/01/10 02:21:13;;;;;;;215.25;84.38;;;-5.10;99.90;;;;;;5095538;28;20111;-53
2024/01/10 02:23:38;;;;;;;209.82;81.63;;;-5.10;99.90;;;;;;5095414;28;20038;-53
2024/01/10 02:26:05;;;;;;;197.80;79.93;;;-5.00;99.90;;;;;;5095077;28;20154;-53
2024/01/10 02:28:30;;;;;;;209.82;84.20;;;-4.90;99.90;;;;;;5095500;28;20485;-53
2024/01/10 02:30:57;;;;;;;201.25;78.70;;;-4.90;99.90;;;;;;5095478;28;20029;-53
2024/01/10 02:33:23;;;;;;;173.77;72.72;;;-5.00;99.90;;;;;;5095254;28;20032;-53
2024/01/10 02:35:48;;;;;;;188.85;78.82;;;-5.00;99.90;;;;;;5095157;28;20036;-53
2024/01/10 02:38:14;;;;;;;189.00;79.18;;;-5.10;99.90;;;;;;5095253;28;20107;-53
2024/01/10 02:40:40;;;;;;;188.20;78.93;;;-5.20;99.90;;;;;;5095254;28;20028;-53
2024/01/10 02:43:07;;;;;;;199.63;81.95;;;-5.20;99.90;;;;;;5095176;28;20493;-53
2024/01/10 02:45:33;;;;;;;181.50;76.07;;;-5.20;99.90;;;;;;5095340;28;20054;-53
2024/01/10 02:47:59;;;;;;;166.82;70.95;;;-5.30;99.90;;;;;;5095209;28;20157;-53
2024/01/10 02:50:25;;;;;;;150.32;64.47;;;-5.40;99.90;;;;;;5095058;28;20063;-54
2024/01/10 02:52:51;;;;;;;157.93;68.75;;;-5.70;99.90;;;;;;5095187;28;20028;-53
2024/01/10 02:55:17;;;;;;;190.75;80.95;;;-5.70;99.90;;;;;;5095172;28;20031;-53
2024/01/10 02:57:49;;;;;;;162.57;72.43;;;-5.70;99.90;;;;;;5095052;28;20354;-53
2024/01/10 03:00:15;;;;;;;161.13;69.28;;;-5.70;99.90;;;;;;5092902;28;20516;-53
2024/01/10 03:02:41;;;;;;;157.50;68.40;;;-5.70;99.90;;;;;;5095053;28;20127;-53
2024/01/10 03:05:07;;;;;;;160.00;69.57;;;-5.80;99.90;;;;;;5094962;28;20504;-53
2024/01/10 03:07:33;;;;;;;155.15;67.75;;;-5.70;99.90;;;;;;5094901;28;20028;-53
2024/01/10 03:09:58;;;;;;;160.27;66.30;;;-5.70;99.90;;;;;;5094886;28;20028;-53
2024/01/10 03:12:24;;;;;;;159.20;67.85;;;-5.70;99.90;;;;;;5094463;28;20056;-53
2024/01/10 03:14:50;;;;;;;161.27;69.55;;;-5.70;99.90;;;;;;5095013;28;20030;-53
2024/01/10 03:17:16;;;;;;;156.18;67.72;;;-5.70;99.90;;;;;;5094906;28;20040;-53
2024/01/10 03:19:43;;;;;;;189.98;85.68;;;-5.70;99.90;;;;;;5094654;28;20024;-53
2024/01/10 03:22:13;;;;;;;203.18;89.15;;;-5.60;99.90;;;;;;5095821;28;20107;-53
2024/01/10 03:24:39;;;;;;;160.85;69.65;;;-5.60;99.90;;;;;;5098451;28;20064;-53
2024/01/10 03:27:05;;;;;;;159.07;68.43;;;-5.60;99.90;;;;;;5098528;28;20043;-53
2024/01/10 03:29:31;;;;;;;164.68;65.82;;;-5.70;99.90;;;;;;5098539;28;20039;-53
2024/01/10 03:31:57;;;;;;;165.57;67.43;;;-5.70;99.90;;;;;;5098522;28;20420;-53
2024/01/10 03:34:23;;;;;;;175.05;71.10;;;-5.70;99.90;;;;;;5098128;28;20024;-53
2024/01/10 03:36:49;;;;;;;179.57;70.68;;;-5.60;99.90;;;;;;5098263;28;20025;-53
2024/01/10 03:39:15;;;;;;;181.13;71.10;;;-5.70;99.90;;;;;;5098378;28;20366;-53
2024/01/10 03:41:40;;;;;;;221.90;85.43;;;-5.70;99.90;;;;;;5098159;28;20031;-53
2024/01/10 03:44:06;;;;;;;217.85;89.18;;;-5.60;99.90;;;;;;5098296;28;20510;-53
2024/01/10 03:46:33;;;;;;;259.88;100.78;;;-5.70;99.90;;;;;;5098188;28;20032;-53
2024/01/10 03:48:59;;;;;;;251.15;97.88;;;-5.80;99.90;;;;;;5098030;28;20031;-53
2024/01/10 03:51:24;;;;;;;237.65;98.18;;;-5.80;99.90;;;;;;5098027;28;20036;-53
2024/01/10 03:53:50;;;;;;;235.05;92.03;;;-5.80;99.90;;;;;;5097959;28;20139;-54
2024/01/10 03:56:17;;;;;;;228.00;89.95;;;-5.80;99.90;;;;;;5097838;28;20032;-53
2024/01/10 03:58:42;;;;;;;201.52;83.32;;;-5.80;99.90;;;;;;5097959;28;20032;-53
2024/01/10 04:01:09;;;;;;;195.38;79.88;;;-5.90;99.90;;;;;;5097738;28;20043;-53
2024/01/10 04:03:35;;;;;;;196.20;81.85;;;-5.90;99.90;;;;;;5097768;28;20028;-53
2024/01/10 04:06:02;;;;;;;190.13;79.55;;;-5.90;99.90;;;;;;5097870;28;20052;-53
2024/01/10 04:08:28;;;;;;;188.45;76.13;;;-6.10;99.90;;;;;;5097693;28;20377;-53
2024/01/10 04:10:54;;;;;;;188.25;76.18;;;-6.00;99.90;;;;;;5097275;28;20096;-53
2024/01/10 04:13:20;;;;;;;175.57;72.63;;;-6.00;99.90;;;;;;5097566;28;20036;-53
2024/01/10 04:15:46;;;;;;;173.05;70.00;;;-6.10;99.90;;;;;;5097666;28;20020;-53
2024/01/10 04:18:12;;;;;;;157.60;66.60;;;-6.20;99.90;;;;;;5097278;28;20032;-53
2024/01/10 04:20:38;;;;;;;161.65;65.78;;;-6.20;99.90;;;;;;5097616;28;20023;-53
2024/01/10 04:23:04;;;;;;;151.70;63.17;;;-6.20;99.90;;;;;;5097558;28;20059;-53
2024/01/10 04:25:30;;;;;;;158.07;66.00;;;-6.20;99.90;;;;;;5097238;28;20058;-53
2024/01/10 04:27:57;;;;;;;154.38;63.80;;;-6.20;99.90;;;;;;5097424;28;20028;-53
2024/01/10 04:30:23;;;;;;;153.05;68.45;;;-6.20;99.90;;;;;;5097199;28;20028;-53
2024/01/10 04:32:49;;;;;;;161.55;66.03;;;-6.20;99.90;;;;;;5097073;28;20289;-53
2024/01/10 04:35:15;;;;;;;169.70;71.85;;;-6.20;99.90;;;;;;5097274;28;20736;-53
2024/01/10 04:37:41;;;;;;;164.02;69.95;;;-6.20;99.90;;;;;;5097253;28;20415;-53
2024/01/10 04:40:07;;;;;;;160.18;66.93;;;-6.00;99.90;;;;;;5096943;28;20020;-53
2024/01/10 04:42:33;;;;;;;158.13;65.97;;;-5.90;99.90;;;;;;5097087;28;20366;-53
2024/01/10 04:44:59;;;;;;;151.75;63.55;;;-5.90;99.90;;;;;;5097100;28;20032;-53
2024/01/10 04:47:25;;;;;;;158.15;64.13;;;-5.90;99.90;;;;;;5096780;28;20020;-53
2024/01/10 04:49:51;;;;;;;146.60;59.13;;;-6.00;99.90;;;;;;5096999;28;20035;-53
2024/01/10 04:52:16;;;;;;;125.32;53.92;;;-6.00;99.90;;;;;;5096940;28;20062;-53
2024/01/10 04:54:42;;;;;;;136.52;56.90;;;-6.20;99.90;;;;;;5096783;28;20529;-53
2024/01/10 04:57:08;;;;;;;129.85;54.13;;;-6.20;99.90;;;;;;5096645;28;20082;-53
2024/01/10 04:59:34;;;;;;;122.97;53.30;;;-6.30;99.90;;;;;;5096874;28;20058;-53
2024/01/10 05:02:00;;;;;;;113.85;51.65;;;-6.30;99.90;;;;;;5095372;28;20054;-53
2024/01/10 05:04:26;;;;;;;123.20;52.25;;;-6.40;99.90;;;;;;5096708;28;20498;-53
2024/01/10 05:06:52;;;;;;;132.38;52.65;;;-6.50;99.90;;;;;;5096504;28;20052;-53
2024/01/10 05:09:18;;;;;;;122.45;52.70;;;-6.50;99.90;;;;;;5096382;28;20376;-53
2024/01/10 05:11:47;;;;;;;126.35;54.20;;;-6.50;99.90;;;;;;5096344;28;20141;-53
2024/01/10 05:14:13;;;;;;;133.05;55.78;;;-6.60;99.90;;;;;;5096400;28;20032;-53
2024/01/10 05:16:38;;;;;;;131.02;55.90;;;-6.60;99.90;;;;;;5096142;28;20023;-54
2024/01/10 05:19:04;;;;;;;131.98;55.03;;;-6.60;99.90;;;;;;5096404;28;20024;-53
2024/01/10 05:21:34;;;;;;;132.20;56.28;;;-6.60;99.90;;;;;;5096684;28;20479;-53
2024/01/10 05:23:59;;;;;;;131.85;54.80;;;-6.50;99.90;;;;;;5096136;28;20024;-53
2024/01/10 05:26:25;;;;;;;122.78;57.28;;;-6.50;99.90;;;;;;5096394;28;20039;-53
2024/01/10 05:28:51;;;;;;;133.65;55.60;;;-6.50;99.90;;;;;;5096343;28;20059;-53
2024/01/10 05:31:17;;;;;;;110.82;51.30;;;-6.50;99.90;;;;;;5095841;28;20078;-53
2024/01/10 05:33:43;;;;;;;118.70;53.17;;;-6.50;99.90;;;;;;5096095;28;20032;-53
2024/01/10 05:36:12;;;;;;;120.88;53.03;;;-6.40;99.90;;;;;;5096025;28;20028;-53
2024/01/10 05:38:40;;;;;;;116.43;51.35;;;-6.60;99.90;;;;;;5095861;28;20020;-53
2024/01/10 05:41:06;;;;;;;122.00;52.33;;;-6.80;99.90;;;;;;5096299;28;20035;-53
2024/01/10 05:43:32;;;;;;;117.78;52.00;;;-6.70;99.90;;;;;;5096109;28;20035;-53
2024/01/10 05:45:59;;;;;;;118.55;50.80;;;-6.80;99.90;;;;;;5095234;28;20501;-53
2024/01/10 05:48:24;;;;;;;123.00;51.30;;;-6.80;99.90;;;;;;5095701;28;20043;-53
2024/01/10 05:50:50;;;;;;;118.47;51.35;;;-6.90;99.90;;;;;;5095949;28;20478;-53
2024/01/10 05:53:17;;;;;;;120.15;52.03;;;-6.90;99.90;;;;;;5095539;28;20086;-53
2024/01/10 05:55:46;;;;;;;123.93;52.88;;;-6.90;99.90;;;;;;5095865;28;20382;-53
2024/01/10 05:58:12;;;;;;;116.10;50.78;;;-6.70;99.90;;;;;;5095628;28;20036;-53
2024/01/10 06:00:37;;;;;;;119.43;51.80;;;-6.60;99.90;;;;;;5094288;28;20392;-53
2024/01/10 06:03:04;;;;;;;117.80;49.85;;;-6.60;99.90;;;;;;5095694;28;20465;-53
2024/01/10 06:05:31;;;;;;;108.25;48.70;;;-6.60;99.90;;;;;;5095608;28;20120;-53
2024/01/10 06:07:57;;;;;;;113.88;48.38;;;-6.70;99.90;;;;;;5095389;28;20076;-53
2024/01/10 06:10:23;;;;;;;117.00;50.47;;;-6.80;99.90;;;;;;5095299;28;20036;-54
2024/01/10 06:12:49;;;;;;;123.55;53.47;;;-6.90;99.90;;;;;;5095499;28;20031;-53
2024/01/10 06:15:15;;;;;;;120.13;52.88;;;-6.90;99.90;;;;;;5095479;28;20084;-53
2024/01/10 06:17:41;;;;;;;126.40;56.50;;;-6.90;99.90;;;;;;5094651;28;20024;-53
2024/01/10 06:20:07;;;;;;;122.43;56.70;;;-7.10;99.90;;;;;;5093582;28;20526;-53
2024/01/10 06:22:33;;;;;;;119.68;55.58;;;-7.00;99.90;;;;;;5094787;28;20051;-53
2024/01/10 06:24:59;;;;;;;135.57;57.85;;;-6.90;99.90;;;;;;5095624;28;20028;-53
2024/01/10 06:27:25;;;;;;;114.97;52.90;;;-6.90;99.90;;;;;;5095759;28;20024;-53
2024/01/10 06:29:51;;;;;;;119.70;54.70;;;-6.80;99.90;;;;;;5095546;28;20024;-53
2024/01/10 06:32:17;;;;;;;120.57;53.35;;;-6.80;99.90;;;;;;5095070;28;20096;-53
2024/01/10 06:34:43;;;;;;;111.80;52.50;;;-6.80;99.90;;;;;;5095148;28;20028;-53
2024/01/10 06:37:10;;;;;;;102.97;49.03;;;-6.90;99.90;;;;;;5094999;28;20115;-53
2024/01/10 06:39:36;;;;;;;112.80;47.95;;;-6.70;99.90;;;;;;5091713;28;20074;-53
2024/01/10 06:42:05;;;;;;;116.28;51.40;;;-6.80;99.90;;;;;;5086218;28;20028;-53
2024/01/10 06:44:32;;;;;;;111.22;49.30;;;-6.80;99.90;;;;;;5095541;28;20024;-53
2024/01/10 06:46:58;;;;;;;115.82;49.78;;;-6.80;99.90;;;;;;5091262;28;20123;-53
2024/01/10 06:49:24;;;;;;;126.25;54.53;;;-6.70;99.90;;;;;;5092786;28;20024;-53
2024/01/10 06:51:49;;;;;;;120.78;50.70;;;-6.60;99.90;;;;;;5088165;28;20020;-53
2024/01/10 06:54:15;;;;;;;111.22;48.45;;;-6.60;99.90;;;;;;5073819;28;20078;-53
2024/01/10 06:56:41;;;;;;;142.00;59.25;;;-6.60;99.90;;;;;;5074339;28;20028;-53
2024/01/10 06:59:07;;;;;;;141.73;59.83;;;-6.60;99.90;;;;;;5077955;28;20052;-53
2024/01/10 07:01:33;;;;;;;131.73;56.13;;;-6.50;99.90;;;;;;5083507;28;20028;-53
2024/01/10 07:03:59;;;;;;;129.77;58.10;;;-6.40;99.90;;;;;;5098127;28;20030;-53
2024/01/10 07:06:25;;;;;;;139.73;59.10;;;-6.30;99.90;;;;;;5096622;28;20016;-53
2024/01/10 07:08:51;;;;;;;130.68;60.97;;;-6.20;99.90;;;;;;5097377;28;20047;-53
2024/01/10 07:11:19;;;;;;;155.73;64.93;;;-6.00;99.90;;;;;;5097766;28;20036;-53
2024/01/10 07:13:45;;;;;;;229.32;97.15;;;-5.80;99.90;;;;;;5098005;28;20028;-53
2024/01/10 07:16:14;;;;;;;215.93;83.93;;;-5.60;99.90;;;;;;5096362;28;20021;-53
2024/01/10 07:18:41;;;;;;;192.73;77.78;;;-5.40;99.90;;;;;;5097893;28;20035;-53
2024/01/10 07:21:09;;;;;;;175.18;68.35;;;-5.30;99.90;;;;;;5096443;28;20032;-53
2024/01/10 07:23:35;;;;;;;193.65;67.97;;;-5.20;99.90;;;;;;5097738;28;20392;-53
2024/01/10 07:26:01;;;;;;;190.20;68.72;;;-5.00;99.90;;;;;;5097761;28;20032;-53
2024/01/10 07:28:27;;;;;;;203.60;72.47;;;-4.90;99.90;;;;;;5094832;28;20021;-53
2024/01/10 07:30:54;;;;;;;237.65;79.22;;;-4.80;99.90;;;;;;5088359;28;20387;-53
2024/01/10 07:33:20;;;;;;;258.65;90.45;;;-4.70;99.90;;;;;;5097684;28;20020;-53
2024/01/10 07:35:46;;;;;;;252.57;87.25;;;-4.70;99.90;;;;;;5098250;28;20111;-53
2024/01/10 07:38:12;;;;;;;258.00;89.75;;;-4.50;99.90;;;;;;5098000;28;20016;-53
2024/01/10 07:40:38;;;;;;;305.95;104.85;;;-4.50;99.90;;;;;;5096240;28;20054;-53
2024/01/10 07:43:04;;;;;;;277.75;101.63;;;-4.30;99.90;;;;;;5097232;28;20393;-53
2024/01/10 07:45:30;;;;;;;293.27;107.28;;;-4.40;99.90;;;;;;5096510;28;20024;-53
2024/01/10 07:47:56;;;;;;;455.35;146.40;;;-4.20;99.90;;;;;;5079591;28;20355;-53
2024/01/10 07:50:26;;;;;;;387.60;126.15;;;-4.10;99.90;;;;;;5094108;28;20085;-53
2024/01/10 07:52:52;;;;;;;346.90;118.68;;;-3.80;99.90;;;;;;5088542;28;20110;-53
2024/01/10 07:55:18;;;;;;;307.13;114.53;;;-3.80;99.90;;;;;;5095490;28;20078;-53
2024/01/10 07:57:44;;;;;;;352.42;120.43;;;-3.90;99.90;;;;;;5093513;28;20048;-53
2024/01/10 08:00:10;;;;;;;349.60;119.78;;;-3.80;99.90;;;;;;5092318;28;20118;-53
2024/01/10 08:02:37;;;;;;;312.35;111.38;;;-3.80;99.90;;;;;;5096347;28;20119;-53
2024/01/10 08:05:09;;;;;;;340.08;113.80;;;-3.50;99.90;;;;;;5097086;28;20319;-53
2024/01/10 08:07:39;;;;;;;354.05;117.10;;;-3.00;99.90;;;;;;5096898;28;20036;-53
2024/01/10 08:10:06;;;;;;;317.25;109.70;;;-2.50;99.90;;;;;;5085371;28;20035;-54
2024/01/10 08:12:32;;;;;;;301.73;102.47;;;-2.20;99.90;;;;;;5083996;28;20071;-53
2024/01/10 08:14:58;;;;;;;280.08;103.35;;;-2.30;99.90;;;;;;5097043;28;20028;-53
2024/01/10 08:17:25;;;;;;;297.20;102.00;;;-2.00;99.90;;;;;;5096895;28;20020;-53
2024/01/10 08:19:51;;;;;;;286.38;96.68;;;-2.30;99.90;;;;;;5091024;28;20547;-53
2024/01/10 08:22:19;;;;;;;301.95;98.57;;;-1.80;99.90;;;;;;5082876;28;20123;-53
2024/01/10 08:24:45;;;;;;;284.42;97.47;;;-1.80;99.50;;;;;;5090178;28;20427;-53
2024/01/10 08:27:12;;;;;;;283.05;93.80;;;-1.90;99.90;;;;;;5094902;28;20104;-53
2024/01/10 08:29:38;;;;;;;301.77;96.95;;;-1.90;99.90;;;;;;5095743;28;20027;-53
2024/01/10 08:32:04;;;;;;;287.40;100.82;;;-2.10;99.90;;;;;;5088531;28;20032;-54
2024/01/10 08:34:30;;;;;;;287.02;99.20;;;-2.10;99.90;;;;;;5088980;28;20047;-53
2024/01/10 08:36:56;;;;;;;301.48;97.00;;;-2.10;99.90;;;;;;5079738;28;20388;-53
2024/01/10 08:39:24;;;;;;;299.67;102.78;;;-2.00;99.90;;;;;;5089570;28;20093;-54
2024/01/10 08:41:50;;;;;;;288.92;102.22;;;-2.00;99.90;;;;;;5096797;28;20016;-54
2024/01/10 08:44:16;;;;;;;277.40;100.20;;;-2.10;99.90;;;;;;5096103;28;20069;-53
2024/01/10 08:46:42;;;;;;;307.83;104.97;;;-2.00;99.90;;;;;;5094691;28;20039;-54
2024/01/10 08:49:09;;;;;;;280.90;98.72;;;-2.20;99.90;;;;;;5094161;28;20468;-54
2024/01/10 08:51:35;;;;;;;294.73;100.93;;;-2.00;99.90;;;;;;5094915;28;20028;-53
2024/01/10 08:54:01;;;;;;;297.88;101.60;;;-1.70;99.90;;;;;;5096134;28;20104;-54
2024/01/10 08:56:27;;;;;;;301.80;105.00;;;-0.80;99.90;;;;;;5093890;28;20108;-54
2024/01/10 08:58:53;;;;;;;318.15;108.72;;;-0.40;98.60;;;;;;5088213;28;20041;-54
2024/01/10 09:01:19;;;;;;;329.08;110.22;;;-0.20;99.30;;;;;;5075152;28;20025;-54
2024/01/10 09:03:45;;;;;;;338.60;114.90;;;0.60;98.40;;;;;;5090925;28;20032;-54
2024/01/10 09:06:12;;;;;;;307.52;112.05;;;0.30;96.90;;;;;;5096085;28;20035;-54
2024/01/10 09:08:39;;;;;;;310.77;110.80;;;1.00;97.10;;;;;;5094987;28;20028;-54
2024/01/10 09:11:05;;;;;;;278.60;102.45;;;1.90;95.80;;;;;;5089328;28;20032;-54
2024/01/10 09:13:32;;;;;;;278.27;98.30;;;2.40;93.50;;;;;;5088581;28;20020;-54
2024/01/10 09:15:57;;;;;;;280.13;102.38;;;3.00;93.10;;;;;;5095012;28;20121;-54
2024/01/10 09:18:23;;;;;;;240.32;89.75;;;3.30;91.30;;;;;;5095696;28;20031;-54
2024/01/10 09:20:49;;;;;;;226.85;81.40;;;3.60;88.30;;;;;;5093273;28;20094;-54
2024/01/10 09:23:15;;;;;;;222.05;82.53;;;3.90;86.60;;;;;;5093282;28;20036;-54
2024/01/10 09:25:42;;;;;;;201.85;76.22;;;4.20;83.60;;;;;;5095545;28;20112;-54
2024/01/10 09:28:08;;;;;;;199.45;77.57;;;4.40;83.30;;;;;;5096512;28;20063;-54
2024/01/10 09:30:34;;;;;;;196.32;75.40;;;4.50;78.70;;;;;;5096061;28;20020;-53
2024/01/10 09:33:00;;;;;;;219.82;81.95;;;4.10;79.40;;;;;;5095882;28;20032;-54
2024/01/10 09:35:26;;;;;;;208.63;80.60;;;4.40;78.80;;;;;;5089535;28;20028;-54
2024/01/10 09:37:53;;;;;;;206.30;81.72;;;4.00;78.90;;;;;;5084425;28;20036;-54
2024/01/10 09:40:26;;;;;;;199.38;77.75;;;4.40;78.40;;;;;;5080093;28;20059;-54
2024/01/10 09:42:52;;;;;;;181.18;75.63;;;3.70;82.20;;;;;;5088586;28;20031;-54
2024/01/10 09:45:20;;;;;;;190.25;77.10;;;4.20;79.80;;;;;;5096017;28;20103;-54
2024/01/10 09:47:50;;;;;;;247.68;94.13;;;4.20;82.00;;;;;;5095361;28;20044;-54
2024/01/10 09:50:16;;;;;;;247.48;95.85;;;4.70;77.30;;;;;;5094944;28;20024;-54
2024/01/10 09:52:58;;;;;;;244.25;94.32;;;4.20;74.20;;;;;;5090650;28;20409;-54
2024/01/10 09:55:30;;;;;;;242.23;93.60;;;4.00;80.90;;;;;;5090715;28;20032;-54
2024/01/10 09:57:56;;;;;;;270.15;92.90;;;3.70;80.40;;;;;;5083911;28;20035;-54
2024/01/10 10:00:25;;;;;;;273.75;95.13;;;3.20;79.60;;;;;;5075336;28;20025;-54
2024/01/10 10:02:53;;;;;;;264.55;90.28;;;3.10;83.20;;;;;;5083240;28;20542;-54
2024/01/10 10:05:20;;;;;;;260.40;90.20;;;3.70;79.00;;;;;;5084880;28;20024;-54
2024/01/10 10:07:51;;;;;;;264.27;92.90;;;3.60;80.10;;;;;;5095351;28;20031;-54
2024/01/10 10:10:17;;;;;;;265.65;91.32;;;3.30;80.60;;;;;;5094929;28;20085;-55
2024/01/10 10:12:54;;;;;;;276.85;95.18;;;2.50;81.50;;;;;;5095209;28;20549;-54
2024/01/10 10:15:22;;;;;;;276.65;94.72;;;2.50;82.60;;;;;;5088948;28;20024;-54
2024/01/10 10:17:50;;;;;;;278.25;99.88;;;2.30;83.00;;;;;;5093681;28;20036;-54
2024/01/10 10:20:27;;;;;;;281.65;95.18;;;1.70;84.50;;;;;;5095233;28;20020;-54
2024/01/10 10:23:10;;;;;;;268.73;94.32;;;1.30;89.50;;;;;;5095282;28;20047;-54
2024/01/10 10:25:47;;;;;;;275.90;93.43;;;1.60;89.00;;;;;;5094137;28;20028;-54
2024/01/10 10:28:13;;;;;;;274.52;92.88;;;1.60;89.60;;;;;;5094694;28;20032;-54
2024/01/10 10:30:39;;;;;;;246.40;90.63;;;1.60;87.80;;;;;;5095879;28;20351;-54
2024/01/10 10:33:08;;;;;;;243.75;86.93;;;1.70;89.00;;;;;;5099395;28;20024;-54
2024/01/10 10:35:34;;;;;;;258.67;88.68;;;1.90;87.90;;;;;;5099254;28;20070;-54
2024/01/10 10:38:00;;;;;;;230.57;82.75;;;2.40;88.20;;;;;;5095534;28;20059;-54
2024/01/10 10:40:26;;;;;;;220.45;79.57;;;3.20;87.10;;;;;;5095129;28;20022;-54
2024/01/10 10:42:58;;;;;;;214.40;80.32;;;4.50;80.50;;;;;;5099559;28;20109;-54
2024/01/10 10:45:27;;;;;;;206.57;78.97;;;5.60;80.10;;;;;;5097308;28;20470;-54
2024/01/10 10:48:01;;;;;;;218.27;82.32;;;5.70;72.70;;;;;;5099232;28;20050;-54
2024/01/10 10:50:34;;;;;;;208.43;78.82;;;5.10;73.10;;;;;;5099107;28;20099;-54
2024/01/10 10:53:03;;;;;;;214.73;82.60;;;6.00;73.30;;;;;;5098190;28;20035;-54
2024/01/10 10:55:29;;;;;;;221.50;85.40;;;6.10;71.70;;;;;;5097211;28;20027;-54
2024/01/10 10:57:58;;;;;;;235.38;88.72;;;6.40;65.80;;;;;;5088372;28;20047;-54
2024/01/10 11:00:27;;;;;;;234.52;89.57;;;5.40;72.10;;;;;;5097711;28;20035;-54
2024/01/10 11:02:57;;;;;;;224.70;88.03;;;6.60;72.00;;;;;;5099416;28;20032;-54
2024/01/10 11:05:24;;;;;;;226.63;86.47;;;6.70;66.20;;;;;;5099193;28;20028;-54
2024/01/10 11:07:52;;;;;;;216.75;84.43;;;7.20;64.40;;;;;;5099171;28;20056;-54
2024/01/10 11:10:20;;;;;;;213.23;82.20;;;6.80;65.30;;;;;;5097039;28;20055;-54
2024/01/10 11:13:28;;;;;;;190.35;74.22;;;6.90;67.80;;;;;;5098858;28;20032;-54
2024/01/10 11:16:30;;;;;;;196.43;75.32;;;7.40;63.80;;;;;;5091472;28;20031;-54
2024/01/10 11:19:08;;;;;;;188.15;77.25;;;7.70;62.10;;;;;;5092145;28;20058;-54
2024/01/10 11:22:01;;;;;;;191.13;78.40;;;7.90;59.50;;;;;;5098963;28;20038;-54
2024/01/10 11:24:27;;;;;;;192.75;81.90;;;8.10;61.80;;;;;;5098517;28;20035;-54
2024/01/10 11:27:13;;;;;;;218.95;86.85;;;7.30;61.00;;;;;;5098041;28;20028;-54
2024/01/10 11:29:40;;;;;;;190.90;76.35;;;7.00;62.60;;;;;;5098502;28;20039;-54
2024/01/10 11:32:12;;;;;;;205.80;82.57;;;7.20;62.40;;;;;;5097036;28;20036;-54
2024/01/10 11:34:39;;;;;;;203.45;81.18;;;7.00;61.00;;;;;;5097492;28;20028;-54
2024/01/10 11:37:12;;;;;;;231.00;90.18;;;7.10;61.70;;;;;;5097618;28;20490;-54
2024/01/10 11:39:43;;;;;;;235.13;92.82;;;6.80;60.60;;;;;;5098364;28;20028;-54
2024/01/10 11:42:09;;;;;;;248.63;95.53;;;5.90;62.50;;;;;;5098176;28;20032;-54
2024/01/10 11:44:49;;;;;;;251.77;96.53;;;5.90;64.00;;;;;;5095813;28;20153;-54
2024/01/10 11:47:17;;;;;;;294.25;116.75;;;6.00;65.10;;;;;;5094848;28;20107;-54
2024/01/10 11:49:57;;;;;;;306.38;119.82;;;6.00;64.20;;;;;;5091352;28;20032;-54
2024/01/10 11:52:31;;;;;;;319.10;125.80;;;6.60;64.10;;;;;;5085797;28;20154;-54
2024/01/10 11:54:57;;;;;;;321.08;124.05;;;6.40;61.60;;;;;;5097460;28;20037;-54
2024/01/10 11:57:27;;;;;;;310.73;121.88;;;6.20;63.90;;;;;;5096097;28;20388;-54
2024/01/10 11:59:55;;;;;;;308.43;126.20;;;6.10;61.60;;;;;;5094990;28;20026;-54
2024/01/10 12:02:23;;;;;;;375.70;139.77;;;6.40;64.30;;;;;;5096050;28;20103;-54
2024/01/10 12:04:49;;;;;;;517.25;182.13;;;5.80;65.60;;;;;;5096160;28;20079;-54
2024/01/10 12:07:16;;;;;;;541.58;197.75;;;5.90;66.70;;;;;;5096894;28;20016;-54
2024/01/10 12:09:43;;;;;;;601.20;221.57;;;6.00;66.10;;;;;;5094506;28;20043;-54
2024/01/10 12:12:11;;;;;;;570.92;209.73;;;5.90;66.30;;;;;;5096726;28;20020;-54
2024/01/10 12:14:37;;;;;;;549.25;207.35;;;5.60;68.20;;;;;;5093432;28;20362;-54
2024/01/10 12:17:04;;;;;;;560.72;204.93;;;6.10;69.00;;;;;;5094551;28;20054;-55
2024/01/10 12:19:30;;;;;;;561.10;201.55;;;6.60;65.40;;;;;;5096444;28;20024;-54